createdAt,value
2022-08-11T00:00:52.506Z,13.91
2022-08-11T00:01:52.453Z,13.94
2022-08-11T00:02:52.495Z,13.93
2022-08-11T00:03:52.424Z,13.88
2022-08-11T00:04:52.417Z,13.94
2022-08-11T00:05:52.419Z,14.02
2022-08-11T00:06:52.401Z,13.98
2022-08-11T00:07:52.396Z,13.91
2022-08-11T00:08:52.370Z,13.96
2022-08-11T00:09:52.364Z,13.93
2022-08-11T00:10:52.359Z,13.96
2022-08-11T00:11:52.336Z,13.99
2022-08-11T00:12:52.357Z,13.91
2022-08-11T00:13:52.319Z,13.91
2022-08-11T00:14:52.336Z,13.90
2022-08-11T00:15:52.296Z,13.90
2022-08-11T00:16:52.285Z,13.88
2022-08-11T00:17:52.277Z,13.96
2022-08-11T00:18:52.281Z,13.86
2022-08-11T00:20:14.592Z,13.91
2022-08-11T00:20:53.352Z,13.76
2022-08-11T00:22:03.897Z,13.90
2022-08-11T00:22:53.263Z,13.84
2022-08-11T00:23:52.211Z,13.76
2022-08-11T00:24:56.027Z,13.73
2022-08-11T00:25:53.180Z,13.75
2022-08-11T00:26:52.227Z,13.76
2022-08-11T00:27:52.164Z,13.81
2022-08-11T00:28:52.166Z,13.81
2022-08-11T00:29:52.145Z,13.84
2022-08-11T00:30:52.126Z,13.81
2022-08-11T00:31:52.225Z,13.87
2022-08-11T00:32:52.112Z,13.88
2022-08-11T00:33:52.099Z,13.93
2022-08-11T00:34:52.086Z,13.91
2022-08-11T00:35:57.257Z,13.91
2022-08-11T00:36:52.064Z,13.96
2022-08-11T00:37:52.067Z,13.91
2022-08-11T00:38:52.053Z,13.91
2022-08-11T00:39:52.104Z,13.94
2022-08-11T00:40:52.031Z,13.88
2022-08-11T00:41:53.736Z,13.94
2022-08-11T00:42:52.002Z,13.91
2022-08-11T00:43:52.035Z,13.98
2022-08-11T00:44:52.019Z,13.90
2022-08-11T00:45:51.988Z,13.94
2022-08-11T00:46:51.951Z,13.91
2022-08-11T00:47:51.959Z,13.94
2022-08-11T00:48:51.945Z,14.01
2022-08-11T00:49:51.924Z,14.06
2022-08-11T00:50:51.916Z,14.02
2022-08-11T00:52:04.133Z,14.02
2022-08-11T00:52:52.898Z,14.06
2022-08-11T00:53:51.879Z,14.05
2022-08-11T00:54:51.875Z,14.01
2022-08-11T00:55:55.791Z,13.98
2022-08-11T00:56:51.855Z,14.06
2022-08-11T00:57:51.842Z,13.98
2022-08-11T00:58:51.839Z,13.99
2022-08-11T00:59:51.829Z,13.98
2022-08-11T01:00:51.843Z,13.99
2022-08-11T01:01:51.791Z,13.94
2022-08-11T01:02:51.951Z,14.04
2022-08-11T01:03:51.777Z,14.05
2022-08-11T01:04:55.657Z,14.06
2022-08-11T01:05:51.754Z,14.02
2022-08-11T01:06:51.731Z,14.12
2022-08-11T01:08:02.129Z,14.12
2022-08-11T01:08:52.730Z,14.04
2022-08-11T01:09:51.706Z,14.09
2022-08-11T01:10:51.685Z,14.17
2022-08-11T01:11:55.919Z,14.12
2022-08-11T01:12:51.668Z,14.16
2022-08-11T01:13:51.663Z,14.13
2022-08-11T01:14:51.658Z,14.17
2022-08-11T01:15:56.012Z,14.09
2022-08-11T01:16:52.628Z,14.12
2022-08-11T01:17:51.618Z,14.02
2022-08-11T01:18:51.606Z,14.23
2022-08-11T01:20:46.666Z,14.09
2022-08-11T01:20:52.614Z,14.11
2022-08-11T01:21:51.590Z,14.09
2022-08-11T01:22:51.560Z,14.11
2022-08-11T01:23:51.547Z,14.04
2022-08-11T01:24:51.568Z,14.06
2022-08-11T01:25:57.146Z,14.06
2022-08-11T01:26:52.666Z,14.06
2022-08-11T01:27:51.511Z,14.06
2022-08-11T01:28:51.491Z,14.04
2022-08-11T01:29:51.484Z,14.09
2022-08-11T01:30:54.160Z,14.08
2022-08-11T01:31:51.467Z,14.06
2022-08-11T01:32:51.466Z,14.02
2022-08-11T01:33:51.438Z,14.06
2022-08-11T01:34:51.423Z,14.02
2022-08-11T01:35:51.413Z,14.09
2022-08-11T01:36:56.722Z,14.12
2022-08-11T01:37:52.418Z,13.99
2022-08-11T01:38:51.381Z,14.09
2022-08-11T01:39:51.416Z,13.99
2022-08-11T01:40:51.374Z,13.98
2022-08-11T01:41:51.357Z,14.05
2022-08-11T01:42:51.332Z,14.09
2022-08-11T01:43:51.331Z,14.01
2022-08-11T01:44:51.324Z,13.99
2022-08-11T01:45:51.309Z,13.93
2022-08-11T01:46:51.302Z,14.02
2022-08-11T01:47:52.984Z,14.04
2022-08-11T01:48:51.272Z,13.98
2022-08-11T01:50:08.186Z,14.02
2022-08-11T01:50:52.303Z,13.96
2022-08-11T01:51:51.252Z,13.99
2022-08-11T01:52:51.234Z,14.02
2022-08-11T01:53:51.220Z,13.98
2022-08-11T01:54:51.209Z,13.96
2022-08-11T01:55:51.219Z,13.91
2022-08-11T01:56:51.183Z,13.90
2022-08-11T01:57:51.197Z,13.91
2022-08-11T01:58:51.161Z,13.94
2022-08-11T01:59:51.153Z,13.98
2022-08-11T02:00:51.191Z,13.96
2022-08-11T02:01:51.141Z,13.96
2022-08-11T02:02:51.126Z,13.90
2022-08-11T02:03:51.129Z,13.98
2022-08-11T02:04:51.103Z,13.90
2022-08-11T02:05:51.091Z,14.02
2022-08-11T02:06:51.082Z,13.94
2022-08-11T02:07:51.072Z,14.01
2022-08-11T02:08:51.064Z,13.93
2022-08-11T02:09:51.956Z,13.90
2022-08-11T02:10:51.519Z,13.96
2022-08-11T02:11:51.177Z,13.93
2022-08-11T02:12:51.244Z,13.93
2022-08-11T02:13:50.994Z,13.94
2022-08-11T02:14:53.525Z,13.94
2022-08-11T02:15:51.975Z,13.99
2022-08-11T02:16:50.980Z,13.93
2022-08-11T02:17:50.967Z,13.96
2022-08-11T02:18:50.948Z,13.93
2022-08-11T02:19:50.938Z,13.94
2022-08-11T02:20:50.920Z,13.93
2022-08-11T02:21:50.911Z,13.93
2022-08-11T02:22:50.905Z,13.96
2022-08-11T02:24:05.836Z,13.98
2022-08-11T02:24:51.885Z,13.96
2022-08-11T02:25:50.871Z,13.91
2022-08-11T02:26:50.865Z,13.88
2022-08-11T02:27:50.865Z,13.80
2022-08-11T02:28:50.859Z,13.81
2022-08-11T02:29:50.823Z,13.81
2022-08-11T02:30:50.820Z,13.75
2022-08-11T02:32:15.793Z,13.72
2022-08-11T02:32:51.795Z,13.69
2022-08-11T02:33:50.789Z,13.68
2022-08-11T02:35:00.142Z,13.63
2022-08-11T02:35:51.831Z,13.65
2022-08-11T02:36:50.758Z,13.79
2022-08-11T02:37:50.743Z,13.86
2022-08-11T02:38:50.725Z,13.79
2022-08-11T02:39:50.766Z,13.93
2022-08-11T02:40:50.757Z,13.88
2022-08-11T02:41:50.700Z,13.88
2022-08-11T02:42:50.696Z,13.80
2022-08-11T02:43:51.073Z,13.83
2022-08-11T02:44:50.680Z,13.81
2022-08-11T02:45:50.651Z,13.79
2022-08-11T02:46:50.708Z,13.83
2022-08-11T02:47:50.636Z,13.76
2022-08-11T02:48:50.630Z,13.79
2022-08-11T02:50:06.313Z,13.86
2022-08-11T02:50:51.593Z,13.79
2022-08-11T02:51:50.599Z,13.88
2022-08-11T02:52:50.606Z,13.87
2022-08-11T02:53:58.258Z,13.86
2022-08-11T02:54:51.561Z,13.83
2022-08-11T02:55:57.838Z,13.84
2022-08-11T02:56:51.533Z,13.80
2022-08-11T02:57:50.535Z,13.71
2022-08-11T02:58:50.523Z,13.75
2022-08-11T02:59:50.496Z,13.87
2022-08-11T03:00:50.485Z,13.86
2022-08-11T03:01:50.513Z,13.83
2022-08-11T03:02:50.468Z,13.87
2022-08-11T03:03:50.466Z,13.75
2022-08-11T03:04:50.441Z,13.88
2022-08-11T03:05:50.480Z,13.88
2022-08-11T03:06:50.418Z,13.83
2022-08-11T03:07:50.407Z,13.86
2022-08-11T03:08:50.399Z,13.73
2022-08-11T03:09:50.414Z,13.90
2022-08-11T03:10:50.379Z,13.75
2022-08-11T03:11:50.365Z,13.86
2022-08-11T03:12:53.694Z,13.90
2022-08-11T03:13:50.350Z,13.96
2022-08-11T03:14:50.344Z,13.93
2022-08-11T03:15:50.328Z,13.93
2022-08-11T03:16:50.310Z,13.84
2022-08-11T03:17:50.309Z,13.88
2022-08-11T03:18:50.297Z,13.88
2022-08-11T03:19:50.376Z,13.90
2022-08-11T03:20:50.261Z,13.91
2022-08-11T03:22:01.394Z,13.87
2022-08-11T03:22:51.251Z,13.94
2022-08-11T03:23:50.231Z,13.94
2022-08-11T03:24:50.218Z,13.91
2022-08-11T03:25:50.229Z,13.96
2022-08-11T03:26:50.196Z,13.93
2022-08-11T03:27:50.254Z,13.91
2022-08-11T03:28:50.179Z,13.96
2022-08-11T03:29:50.168Z,13.93
2022-08-11T03:30:50.165Z,13.88
2022-08-11T03:31:50.157Z,13.93
2022-08-11T03:32:50.131Z,13.93
2022-08-11T03:33:50.122Z,13.83
2022-08-11T03:34:50.129Z,13.91
2022-08-11T03:35:50.100Z,13.91
2022-08-11T03:37:15.469Z,13.93
2022-08-11T03:37:51.133Z,13.88
2022-08-11T03:38:50.072Z,13.90
2022-08-11T03:39:52.719Z,13.91
2022-08-11T03:40:51.071Z,13.93
2022-08-11T03:42:03.180Z,13.86
2022-08-11T03:42:51.037Z,13.90
2022-08-11T03:43:58.109Z,13.94
2022-08-11T03:44:51.010Z,13.93
2022-08-11T03:45:49.995Z,13.94
2022-08-11T03:46:49.981Z,13.88
2022-08-11T03:47:54.980Z,13.94
2022-08-11T03:48:50.971Z,13.86
2022-08-11T03:49:49.982Z,13.84
2022-08-11T03:50:54.820Z,13.83
2022-08-11T03:51:51.888Z,13.90
2022-08-11T03:52:49.933Z,13.84
2022-08-11T03:53:49.923Z,13.81
2022-08-11T03:54:49.892Z,13.86
2022-08-11T03:55:49.884Z,13.79
2022-08-11T03:56:49.882Z,13.73
2022-08-11T03:57:49.874Z,13.76
2022-08-11T03:58:49.853Z,13.83
2022-08-11T03:59:49.845Z,13.90
2022-08-11T04:00:49.848Z,13.83
2022-08-11T04:01:49.876Z,13.84
2022-08-11T04:02:49.814Z,13.83
2022-08-11T04:03:49.814Z,13.81
2022-08-11T04:04:51.268Z,13.79
2022-08-11T04:05:49.768Z,13.80
2022-08-11T04:06:49.762Z,13.75
2022-08-11T04:07:49.758Z,13.79
2022-08-11T04:08:49.764Z,13.79
2022-08-11T04:09:49.731Z,13.83
2022-08-11T04:10:49.722Z,13.87
2022-08-11T04:11:49.714Z,13.94
2022-08-11T04:12:49.958Z,13.91
2022-08-11T04:13:49.679Z,13.94
2022-08-11T04:14:49.673Z,13.91
2022-08-11T04:15:49.669Z,13.96
2022-08-11T04:16:49.685Z,13.91
2022-08-11T04:17:49.675Z,13.91
2022-08-11T04:18:49.632Z,13.88
2022-08-11T04:19:49.620Z,13.88
2022-08-11T04:20:49.628Z,13.87
2022-08-11T04:21:49.613Z,13.88
2022-08-11T04:22:49.595Z,13.88
2022-08-11T04:24:36.542Z,13.79
2022-08-11T04:24:50.790Z,13.87
2022-08-11T04:25:58.106Z,13.83
2022-08-11T04:26:50.555Z,13.87
2022-08-11T04:27:49.524Z,13.91
2022-08-11T04:28:50.356Z,13.93
2022-08-11T04:30:02.004Z,13.80
2022-08-11T04:30:50.508Z,13.75
2022-08-11T04:31:51.454Z,13.83
2022-08-11T04:32:49.542Z,13.80
2022-08-11T04:33:49.498Z,13.90
2022-08-11T04:34:49.455Z,13.87
2022-08-11T04:35:51.358Z,13.90
2022-08-11T04:36:49.449Z,13.88
2022-08-11T04:37:51.322Z,13.93
2022-08-11T04:38:49.418Z,13.98
2022-08-11T04:39:49.513Z,13.96
2022-08-11T04:40:49.393Z,13.91
2022-08-11T04:41:49.463Z,13.90
2022-08-11T04:42:49.436Z,13.98
2022-08-11T04:44:02.385Z,13.94
2022-08-11T04:44:50.350Z,13.90
2022-08-11T04:45:49.355Z,13.91
2022-08-11T04:46:49.331Z,13.90
2022-08-11T04:48:01.859Z,13.94
2022-08-11T04:48:50.301Z,13.94
2022-08-11T04:49:49.299Z,13.96
2022-08-11T04:51:08.693Z,13.96
2022-08-11T04:51:50.296Z,13.96
2022-08-11T04:52:49.279Z,14.01
2022-08-11T04:53:52.380Z,13.96
2022-08-11T04:54:49.241Z,13.99
2022-08-11T04:55:49.247Z,14.02
2022-08-11T04:56:49.273Z,14.05
2022-08-11T04:57:49.202Z,14.02
2022-08-11T04:58:49.187Z,14.16
2022-08-11T04:59:49.180Z,14.01
2022-08-11T05:00:49.173Z,14.05
2022-08-11T05:01:49.306Z,13.99
2022-08-11T05:02:49.150Z,14.06
2022-08-11T05:03:49.137Z,14.01
2022-08-11T05:04:49.125Z,14.11
2022-08-11T05:05:55.368Z,14.06
2022-08-11T05:06:50.117Z,14.11
2022-08-11T05:07:49.101Z,14.23
2022-08-11T05:08:49.105Z,14.12
2022-08-11T05:09:49.064Z,14.20
2022-08-11T05:10:49.056Z,14.12
2022-08-11T05:11:49.131Z,14.29
2022-08-11T05:12:49.054Z,14.67
2022-08-11T05:13:49.040Z,15.11
2022-08-11T05:14:49.027Z,15.38
2022-08-11T05:15:51.575Z,15.56
2022-08-11T05:16:49.030Z,15.80
2022-08-11T05:17:48.994Z,15.74
2022-08-11T05:18:48.994Z,15.78
2022-08-11T05:19:48.964Z,15.80
2022-08-11T05:20:48.951Z,15.88
2022-08-11T05:21:48.944Z,16.18
2022-08-11T05:22:48.929Z,16.23
2022-08-11T05:23:48.946Z,16.44
2022-08-11T05:24:48.917Z,16.60
2022-08-11T05:26:44.984Z,16.90
2022-08-11T05:26:50.043Z,17.12
2022-08-11T05:27:48.875Z,17.45
2022-08-11T05:28:48.882Z,17.54
2022-08-11T05:29:48.867Z,17.60
2022-08-11T05:30:48.847Z,17.57
2022-08-11T05:31:48.836Z,17.38
2022-08-11T05:32:48.823Z,17.51
2022-08-11T05:33:48.820Z,17.74
2022-08-11T05:34:48.800Z,17.84
2022-08-11T05:36:01.501Z,17.84
2022-08-11T05:36:49.786Z,17.89
2022-08-11T05:37:48.785Z,17.86
2022-08-11T05:38:48.753Z,17.95
2022-08-11T05:39:48.767Z,17.87
2022-08-11T05:40:51.382Z,17.83
2022-08-11T05:41:48.734Z,17.99
2022-08-11T05:42:48.701Z,18.25
2022-08-11T05:44:20.193Z,18.32
2022-08-11T05:44:49.685Z,18.10
2022-08-11T05:46:02.885Z,17.99
2022-08-11T05:46:49.661Z,18.25
2022-08-11T05:47:48.652Z,18.28
2022-08-11T05:48:48.655Z,18.65
2022-08-11T05:49:48.720Z,18.59
2022-08-11T05:50:48.623Z,18.71
2022-08-11T05:51:55.523Z,18.56
2022-08-11T05:52:55.330Z,18.56
2022-08-11T05:53:49.593Z,18.49
2022-08-11T05:54:48.573Z,18.49
2022-08-11T05:56:02.247Z,18.76
2022-08-11T05:56:49.568Z,18.69
2022-08-11T05:57:51.500Z,18.44
2022-08-11T05:58:48.544Z,19.01
2022-08-11T05:59:48.519Z,18.94
2022-08-11T06:00:48.515Z,19.02
2022-08-11T06:01:48.531Z,19.09
2022-08-11T06:02:48.494Z,19.09
2022-08-11T06:03:58.100Z,19.09
2022-08-11T06:04:49.479Z,19.12
2022-08-11T06:05:48.455Z,19.17
2022-08-11T06:06:48.451Z,19.20
2022-08-11T06:07:49.530Z,19.16
2022-08-11T06:08:48.430Z,19.25
2022-08-11T06:09:48.414Z,19.17
2022-08-11T06:10:48.419Z,19.16
2022-08-11T06:11:48.393Z,19.07
2022-08-11T06:12:48.380Z,18.99
2022-08-11T06:13:48.421Z,18.94
2022-08-11T06:14:48.358Z,18.94
2022-08-11T06:15:48.408Z,18.96
2022-08-11T06:16:48.431Z,18.76
2022-08-11T06:17:48.318Z,18.75
2022-08-11T06:18:48.314Z,18.91
2022-08-11T06:19:48.306Z,19.07
2022-08-11T06:20:48.300Z,19.21
2022-08-11T06:21:48.278Z,18.91
2022-08-11T06:22:52.470Z,18.66
2022-08-11T06:23:48.269Z,18.66
2022-08-11T06:24:48.267Z,18.84
2022-08-11T06:25:48.235Z,19.09
2022-08-11T06:27:09.083Z,19.23
2022-08-11T06:27:49.218Z,19.28
2022-08-11T06:28:48.200Z,19.35
2022-08-11T06:29:55.123Z,18.86
2022-08-11T06:30:49.238Z,18.84
2022-08-11T06:31:48.164Z,18.83
2022-08-11T06:32:48.168Z,18.68
2022-08-11T06:33:48.149Z,18.90
2022-08-11T06:34:48.131Z,18.90
2022-08-11T06:35:48.132Z,18.76
2022-08-11T06:36:48.110Z,18.93
2022-08-11T06:37:48.131Z,18.93
2022-08-11T06:38:48.085Z,19.12
2022-08-11T06:39:48.213Z,19.21
2022-08-11T06:40:48.072Z,19.32
2022-08-11T06:41:48.067Z,19.15
2022-08-11T06:42:48.059Z,19.24
2022-08-11T06:43:55.406Z,19.20
2022-08-11T06:44:49.035Z,19.05
2022-08-11T06:45:48.017Z,19.20
2022-08-11T06:46:48.011Z,19.13
2022-08-11T06:47:47.999Z,19.15
2022-08-11T06:48:48.007Z,19.52
2022-08-11T06:49:47.986Z,19.45
2022-08-11T06:50:48.008Z,19.46
2022-08-11T06:51:47.948Z,19.32
2022-08-11T06:52:48.119Z,18.79
2022-08-11T06:54:03.043Z,18.69
2022-08-11T06:54:48.909Z,18.96
2022-08-11T06:55:56.924Z,19.46
2022-08-11T06:56:57.484Z,19.70
2022-08-11T06:57:48.880Z,19.71
2022-08-11T06:58:47.893Z,19.86
2022-08-11T06:59:47.873Z,19.89
2022-08-11T07:00:47.860Z,19.85
2022-08-11T07:01:49.426Z,19.64
2022-08-11T07:02:47.829Z,19.62
2022-08-11T07:03:47.824Z,19.85
2022-08-11T07:04:47.818Z,19.98
2022-08-11T07:05:47.791Z,20.05
2022-08-11T07:06:50.900Z,19.95
2022-08-11T07:07:47.786Z,20.12
2022-08-11T07:08:47.763Z,20.37
2022-08-11T07:09:47.768Z,20.53
2022-08-11T07:10:47.741Z,20.82
2022-08-11T07:11:47.769Z,20.44
2022-08-11T07:12:47.715Z,20.54
2022-08-11T07:13:47.739Z,20.75
2022-08-11T07:14:47.697Z,20.37
2022-08-11T07:16:10.763Z,20.33
2022-08-11T07:16:48.707Z,20.20
2022-08-11T07:17:47.681Z,20.17
2022-08-11T07:18:47.655Z,20.33
2022-08-11T07:19:47.653Z,20.33
2022-08-11T07:20:47.660Z,20.60
2022-08-11T07:22:00.944Z,20.83
2022-08-11T07:22:48.637Z,20.73
2022-08-11T07:23:47.598Z,20.48
2022-08-11T07:24:59.628Z,20.85
2022-08-11T07:25:48.611Z,21.30
2022-08-11T07:26:47.572Z,21.58
2022-08-11T07:27:47.564Z,21.30
2022-08-11T07:28:47.566Z,21.00
2022-08-11T07:29:47.603Z,20.94
2022-08-11T07:30:47.531Z,21.11
2022-08-11T07:31:48.513Z,20.94
2022-08-11T07:32:47.502Z,20.94
2022-08-11T07:34:05.879Z,20.63
2022-08-11T07:34:48.499Z,20.37
2022-08-11T07:35:47.470Z,20.56
2022-08-11T07:36:47.450Z,20.93
2022-08-11T07:37:47.447Z,21.21
2022-08-11T07:38:47.776Z,21.16
2022-08-11T07:39:47.488Z,21.05
2022-08-11T07:40:47.420Z,21.22
2022-08-11T07:41:47.419Z,21.36
2022-08-11T07:42:47.434Z,21.40
2022-08-11T07:43:47.380Z,21.09
2022-08-11T07:44:47.379Z,20.60
2022-08-11T07:45:47.396Z,20.91
2022-08-11T07:46:47.347Z,20.93
2022-08-11T07:47:47.336Z,21.24
2022-08-11T07:48:47.390Z,20.91
2022-08-11T07:49:47.318Z,20.97
2022-08-11T07:50:47.306Z,21.03
2022-08-11T07:51:47.304Z,21.27
2022-08-11T07:52:47.293Z,20.97
2022-08-11T07:53:58.271Z,20.87
2022-08-11T07:54:51.345Z,21.21
2022-08-11T07:55:51.889Z,21.31
2022-08-11T07:56:54.969Z,21.34
2022-08-11T07:58:15.136Z,21.30
2022-08-11T07:58:53.138Z,21.42
2022-08-11T08:00:03.598Z,21.33
2022-08-11T08:00:49.102Z,21.22
2022-08-11T08:01:47.248Z,21.49
2022-08-11T08:02:47.229Z,21.86
2022-08-11T08:03:53.694Z,22.12
2022-08-11T08:04:48.144Z,22.21
2022-08-11T08:05:47.146Z,22.49
2022-08-11T08:06:47.175Z,22.59
2022-08-11T08:07:47.133Z,22.30
2022-08-11T08:08:47.117Z,22.26
2022-08-11T08:09:47.139Z,22.61
2022-08-11T08:10:47.083Z,22.88
2022-08-11T08:11:47.071Z,22.60
2022-08-11T08:12:47.068Z,22.54
2022-08-11T08:13:47.050Z,23.09
2022-08-11T08:14:47.054Z,22.82
2022-08-11T08:15:47.048Z,22.79
2022-08-11T08:16:47.044Z,22.69
2022-08-11T08:18:09.093Z,22.27
2022-08-11T08:18:48.007Z,22.05
2022-08-11T08:19:46.992Z,22.44
2022-08-11T08:20:47.014Z,22.56
2022-08-11T08:21:46.969Z,22.69
2022-08-11T08:22:48.694Z,23.41
2022-08-11T08:23:46.975Z,23.52
2022-08-11T08:24:46.931Z,23.54
2022-08-11T08:25:46.929Z,23.59
2022-08-11T08:26:51.400Z,23.74
2022-08-11T08:27:47.903Z,23.97
2022-08-11T08:28:46.906Z,23.60
2022-08-11T08:29:46.878Z,23.54
2022-08-11T08:30:46.865Z,23.59
2022-08-11T08:31:46.868Z,23.42
2022-08-11T08:32:46.879Z,22.46
2022-08-11T08:33:46.833Z,22.12
2022-08-11T08:34:46.820Z,22.75
2022-08-11T08:35:54.579Z,23.01
2022-08-11T08:36:47.855Z,23.47
2022-08-11T08:37:47.819Z,22.93
2022-08-11T08:38:46.833Z,22.51
2022-08-11T08:39:46.792Z,22.38
2022-08-11T08:40:46.750Z,22.66
2022-08-11T09:12:42.903Z,23.32
2022-08-11T09:13:42.731Z,23.16
2022-08-11T09:14:15.206Z,23.25
2022-08-11T09:15:13.563Z,22.79
2022-08-11T09:16:13.551Z,23.25
2022-08-11T09:17:13.543Z,23.07
2022-08-11T09:18:13.531Z,23.74
2022-08-11T09:19:13.547Z,24.34
2022-08-11T09:20:13.544Z,24.19
2022-08-11T09:21:13.502Z,24.21
2022-08-11T09:22:13.504Z,24.23
2022-08-11T09:24:24.852Z,23.79
2022-08-11T09:25:14.473Z,24.00
2022-08-11T09:26:13.551Z,24.15
2022-08-11T09:27:13.435Z,23.97
2022-08-11T09:28:13.421Z,23.56
2022-08-11T09:29:13.414Z,23.11
2022-08-11T09:30:13.454Z,23.32
2022-08-11T09:31:13.665Z,23.39
2022-08-11T09:32:13.379Z,23.63
2022-08-11T09:33:13.365Z,23.67
2022-08-11T09:34:13.359Z,23.69
2022-08-11T09:35:13.351Z,23.38
2022-08-11T09:36:13.390Z,22.79
2022-08-11T09:37:13.390Z,22.57
2022-08-11T09:38:14.331Z,22.48
2022-08-11T09:39:13.405Z,22.23
2022-08-11T09:40:13.286Z,22.21
2022-08-11T09:41:13.286Z,22.46
2022-08-11T09:42:16.668Z,22.60
2022-08-11T09:43:14.259Z,22.78
2022-08-11T09:44:13.259Z,23.38
2022-08-11T09:45:13.241Z,23.72
2022-08-11T09:46:13.228Z,23.71
2022-08-11T09:47:13.218Z,23.68
2022-08-11T09:48:13.219Z,23.86
2022-08-11T09:49:13.197Z,23.79
2022-08-11T09:50:13.197Z,23.79
2022-08-11T09:51:13.166Z,23.92
2022-08-11T09:52:13.148Z,23.64
2022-08-11T09:53:37.120Z,23.94
2022-08-11T09:54:14.134Z,24.05
2022-08-11T09:55:13.149Z,24.79
2022-08-11T09:56:13.144Z,24.86
2022-08-11T09:57:13.111Z,25.20
2022-08-11T09:58:13.161Z,25.08
2022-08-11T09:59:14.080Z,25.35
2022-08-11T10:00:13.937Z,25.42
2022-08-11T10:01:13.103Z,24.89
2022-08-11T10:02:13.058Z,25.23
2022-08-11T10:03:13.066Z,25.22
2022-08-11T10:04:13.031Z,25.38
2022-08-11T10:05:13.017Z,25.23
2022-08-11T10:06:12.994Z,25.63
2022-08-11T10:07:13.040Z,26.00
2022-08-11T10:08:13.008Z,26.13
2022-08-11T10:09:12.994Z,26.12
2022-08-11T10:10:12.957Z,26.20
2022-08-11T10:11:12.948Z,25.71
2022-08-11T10:12:12.948Z,25.83
2022-08-11T10:14:32.080Z,25.42
2022-08-11T10:14:32.883Z,25.57
2022-08-11T10:15:13.909Z,25.93
2022-08-11T10:16:16.309Z,25.66
2022-08-11T10:17:12.949Z,26.09
2022-08-11T10:18:13.024Z,25.96
2022-08-11T10:19:12.885Z,25.69
2022-08-11T10:20:12.849Z,25.85
2022-08-11T10:21:12.840Z,25.94
2022-08-11T10:22:12.843Z,25.41
2022-08-11T10:23:12.819Z,25.22
2022-08-11T10:24:12.821Z,25.17
2022-08-11T10:25:12.793Z,24.93
2022-08-11T10:26:12.782Z,24.71
2022-08-11T10:27:12.808Z,24.52
2022-08-11T10:28:32.973Z,24.23
2022-08-11T10:29:14.085Z,23.97
2022-08-11T10:30:12.744Z,24.04
2022-08-11T10:31:13.759Z,23.90
2022-08-11T10:32:12.719Z,24.49
2022-08-11T10:33:12.714Z,25.04
2022-08-11T10:34:13.750Z,25.24
2022-08-11T10:35:12.690Z,25.74
2022-08-11T10:36:16.473Z,26.19
2022-08-11T10:37:14.933Z,26.71
2022-08-11T10:38:12.695Z,26.69
2022-08-11T10:39:12.677Z,26.49
2022-08-11T10:40:12.725Z,26.72
2022-08-11T10:41:12.625Z,26.65
2022-08-11T10:42:21.036Z,26.16
2022-08-11T10:43:14.499Z,25.56
2022-08-11T10:44:13.590Z,25.31
2022-08-11T10:45:12.615Z,25.31
2022-08-11T10:46:12.614Z,24.30
2022-08-11T10:47:12.569Z,24.27
2022-08-11T10:48:15.662Z,24.68
2022-08-11T10:49:12.549Z,25.01
2022-08-11T10:50:12.535Z,24.93
2022-08-11T10:51:12.533Z,24.79
2022-08-11T10:52:12.509Z,24.56
2022-08-11T10:53:12.520Z,24.27
2022-08-11T10:54:12.775Z,24.11
2022-08-11T10:55:12.496Z,23.92
2022-08-11T10:56:12.468Z,23.87
2022-08-11T10:57:12.693Z,23.97
2022-08-11T10:58:12.447Z,23.96
2022-08-11T10:59:12.433Z,23.99
2022-08-11T11:00:12.460Z,23.78
2022-08-11T11:01:12.507Z,23.63
2022-08-11T11:02:12.409Z,23.57
2022-08-11T11:03:22.797Z,23.35
2022-08-11T11:04:13.400Z,23.37
2022-08-11T11:05:12.376Z,23.37
2022-08-11T11:06:27.566Z,23.42
2022-08-11T11:07:13.363Z,23.56
2022-08-11T11:08:12.352Z,23.52
2022-08-11T11:09:12.435Z,23.52
2022-08-11T11:10:12.396Z,23.53
2022-08-11T11:11:12.315Z,23.54
2022-08-11T11:12:13.295Z,23.57
2022-08-11T11:13:12.289Z,23.62
2022-08-11T11:14:12.271Z,23.60
2022-08-11T11:15:17.901Z,23.50
2022-08-11T11:16:13.254Z,23.38
2022-08-11T11:17:14.139Z,23.35
2022-08-11T11:18:12.247Z,23.52
2022-08-11T11:19:12.225Z,23.78
2022-08-11T11:20:34.578Z,24.11
2022-08-11T11:21:13.239Z,24.30
2022-08-11T11:22:12.186Z,24.26
2022-08-11T11:23:12.404Z,24.92
2022-08-11T11:24:12.163Z,25.01
2022-08-11T11:25:12.166Z,25.38
2022-08-11T11:26:12.168Z,25.64
2022-08-11T11:27:12.132Z,25.97
2022-08-11T11:28:12.119Z,26.24
2022-08-11T11:29:12.146Z,25.94
2022-08-11T11:30:12.097Z,25.60
2022-08-11T11:31:12.091Z,25.64
2022-08-11T11:32:12.081Z,25.14
2022-08-11T11:33:12.086Z,24.99
2022-08-11T11:34:13.045Z,24.68
2022-08-11T11:35:12.056Z,24.29
2022-08-11T11:36:12.052Z,23.99
2022-08-11T11:37:12.024Z,23.78
2022-08-11T11:38:14.175Z,23.74
2022-08-11T11:39:12.091Z,23.56
2022-08-11T11:40:11.995Z,23.42
2022-08-11T11:41:11.997Z,23.42
2022-08-11T11:42:12.039Z,23.41
2022-08-11T11:43:11.969Z,23.26
2022-08-11T11:44:11.947Z,23.25
2022-08-11T11:45:23.445Z,23.31
2022-08-11T11:46:12.943Z,23.23
2022-08-11T11:47:11.975Z,23.41
2022-08-11T11:48:11.902Z,23.23
2022-08-11T11:49:17.085Z,23.14
2022-08-11T11:50:12.970Z,23.21
2022-08-11T11:51:11.864Z,23.21
2022-08-11T11:52:11.871Z,23.34
2022-08-11T11:53:11.917Z,23.38
2022-08-11T11:54:11.846Z,23.42
2022-08-11T11:55:11.898Z,23.37
2022-08-11T11:56:11.808Z,23.47
2022-08-11T11:57:11.802Z,23.50
2022-08-11T11:58:11.895Z,23.45
2022-08-11T11:59:14.655Z,23.32
2022-08-11T12:00:11.805Z,23.41
2022-08-11T12:01:11.758Z,23.41
2022-08-11T12:02:12.629Z,23.41
2022-08-11T12:03:11.764Z,23.57
2022-08-11T12:04:11.838Z,23.93
2022-08-11T12:05:11.720Z,24.29
2022-08-11T12:06:11.746Z,24.33
2022-08-11T12:07:11.688Z,24.39
2022-08-11T12:08:13.180Z,24.52
2022-08-11T12:09:11.690Z,24.74
2022-08-11T12:10:11.734Z,24.71
2022-08-11T12:11:11.707Z,24.84
2022-08-11T12:12:11.633Z,24.87
2022-08-11T12:13:11.628Z,24.94
2022-08-11T12:14:11.619Z,25.02
2022-08-11T12:15:11.621Z,25.36
2022-08-11T12:16:34.294Z,25.23
2022-08-11T12:17:12.576Z,24.99
2022-08-11T12:18:11.603Z,24.74
2022-08-11T12:19:11.570Z,24.82
2022-08-11T12:20:31.817Z,24.49
2022-08-11T12:21:12.649Z,24.26
2022-08-11T12:22:11.529Z,24.23
2022-08-11T12:23:11.525Z,24.09
2022-08-11T12:24:11.499Z,23.90
2022-08-11T12:25:11.496Z,24.34
2022-08-11T12:26:27.072Z,23.79
2022-08-11T12:27:16.080Z,23.50
2022-08-11T12:28:11.466Z,23.53
2022-08-11T12:29:11.478Z,23.47
2022-08-11T12:30:11.447Z,23.42
2022-08-11T12:31:11.435Z,23.49
2022-08-11T12:32:11.537Z,23.47
2022-08-11T12:33:11.416Z,23.23
2022-08-11T12:34:11.413Z,23.63
2022-08-11T12:35:11.414Z,23.63
2022-08-11T12:36:11.382Z,23.90
2022-08-11T12:37:13.251Z,23.68
2022-08-11T12:38:12.716Z,23.79
2022-08-11T12:39:22.977Z,23.59
2022-08-11T12:40:42.693Z,23.60
2022-08-11T12:41:15.031Z,23.86
2022-08-11T12:42:11.305Z,24.33
2022-08-11T12:43:21.882Z,24.55
2022-08-11T12:44:12.298Z,24.89
2022-08-11T12:45:22.594Z,24.93
2022-08-11T12:46:12.277Z,24.90
2022-08-11T12:47:11.257Z,25.05
2022-08-11T12:48:59.589Z,25.16
2022-08-11T12:49:12.238Z,25.17
2022-08-11T12:50:22.896Z,25.16
2022-08-11T12:51:12.210Z,25.23
2022-08-11T12:52:15.346Z,25.30
2022-08-11T12:53:11.208Z,25.48
2022-08-11T12:54:11.181Z,25.61
2022-08-11T12:55:13.759Z,25.56
2022-08-11T12:56:11.161Z,25.69
2022-08-11T12:57:11.159Z,25.71
2022-08-11T12:58:11.150Z,25.56
2022-08-11T12:59:11.136Z,25.11
2022-08-11T13:00:11.225Z,24.52
2022-08-11T13:01:12.584Z,24.64
2022-08-11T13:02:11.163Z,24.80
2022-08-11T13:03:11.081Z,25.01
2022-08-11T13:04:11.099Z,24.55
2022-08-11T13:05:11.317Z,24.15
2022-08-11T13:06:11.061Z,23.74
2022-08-11T13:07:11.041Z,23.68
2022-08-11T13:08:11.081Z,23.49
2022-08-11T13:09:11.024Z,23.54
2022-08-11T13:10:16.787Z,23.53
2022-08-11T13:11:11.992Z,23.47
2022-08-11T13:12:10.993Z,23.50
2022-08-11T13:13:52.998Z,23.35
2022-08-11T13:14:14.965Z,23.22
2022-08-11T13:15:10.953Z,23.29
2022-08-11T13:16:10.957Z,23.41
2022-08-11T13:17:10.929Z,23.34
2022-08-11T13:18:11.003Z,23.18
2022-08-11T13:19:10.909Z,23.14
2022-08-11T13:20:10.921Z,23.18
2022-08-11T13:21:10.886Z,23.37
2022-08-11T13:22:11.363Z,23.29
2022-08-11T13:23:10.863Z,23.14
2022-08-11T13:24:10.858Z,23.22